Denver, Colorado
Current Conditions -  °F | °C
As of 8:58 AM on Friday 24 Oct 2014 (Local Time) from KBKF Reporting Station
Broken Clouds Broken Clouds  
Wind Chill: 56°   Ceiling: 22000
Heat Index: 56°   Visibility: 10mi
Dew Point: 28°   Wind: 8mph
Humidity: 34%   Direction: 190°S
Pressure: 30.22"   Gusts: NA
Location:  39.74°N, 104.99°W
Report Text: KBKF 241458Z 19007KT 10SM SCT110 BKN220 14/M02 A3022 RMK AO2A SLP189 T01351020 53013
Loading
Personal Weather Stations






























Interactive Weather Map
Tropical Storm Tracking
New forecast layout! Learn more

10-Day Weather Forecast

Advertisements
Track Severe Weather on mobile